Time;durP1;ratioP1;P1;durP2;ratioP2;P2;SDS_P1;SDS_P2;PMS_P1;PMS_P2;Temp;Humidity;BMP_temperature;BMP_pressure;BME280_temperature;BME280_humidity;BME280_pressure;Samples;Min_cycle;Max_cycle;Signal;HPM_P1;HPM_P2
2023/03/12 00:02:14;;;;;;;0.20;0.20;;;;;;;3.58;94.45;98193.78;5110270;28;20224;-61
2023/03/12 00:04:40;;;;;;;0.50;0.50;;;;;;;3.58;94.37;98188.75;5110389;28;20200;-61
2023/03/12 00:07:07;;;;;;;0.77;0.63;;;;;;;3.50;94.94;98201.00;5110311;28;20220;-61
2023/03/12 00:09:37;;;;;;;0.53;0.53;;;;;;;3.48;94.69;98207.84;5109918;28;20573;-60
2023/03/12 00:12:05;;;;;;;0.53;0.43;;;;;;;3.43;95.67;98214.88;5109819;28;20205;-60
2023/03/12 00:14:32;;;;;;;0.97;0.63;;;;;;;3.35;96.30;98202.69;5110157;28;20193;-61
2023/03/12 00:16:59;;;;;;;0.40;0.40;;;;;;;3.30;95.76;98205.47;5109764;28;20208;-61
2023/03/12 00:19:26;;;;;;;0.50;0.50;;;;;;;3.24;97.40;98197.44;5110307;28;20206;-59
2023/03/12 00:21:52;;;;;;;1.27;1.17;;;;;;;3.16;97.41;98198.66;5110069;28;20197;-58
2023/03/12 00:24:19;;;;;;;1.33;0.40;;;;;;;3.07;98.28;98203.44;5110195;28;20673;-61
2023/03/12 00:26:48;;;;;;;2.13;1.23;;;;;;;3.03;99.44;98207.03;5110427;28;20356;-60
2023/03/12 00:29:14;;;;;;;0.30;0.30;;;;;;;3.02;99.72;98213.78;5109951;28;20204;-61
2023/03/12 00:31:41;;;;;;;0.63;0.60;;;;;;;3.01;99.17;98213.88;5110055;28;20224;-59
2023/03/12 00:34:09;;;;;;;0.50;0.50;;;;;;;2.98;100.00;98203.94;5109792;28;20221;-59
2023/03/12 00:36:36;;;;;;;0.60;0.30;;;;;;;2.93;100.00;98207.53;5109480;28;20198;-60
2023/03/12 00:39:03;;;;;;;0.20;0.20;;;;;;;2.92;100.00;98205.09;5109669;28;20231;-60
2023/03/12 00:41:30;;;;;;;0.43;0.40;;;;;;;2.92;99.63;98208.44;5109894;28;20220;-61
2023/03/12 00:43:59;;;;;;;0.50;0.50;;;;;;;2.89;100.00;98205.28;5109841;28;20213;-61
2023/03/12 00:46:26;;;;;;;0.53;0.53;;;;;;;2.81;100.00;98200.63;5109878;28;20193;-59
2023/03/12 00:48:53;;;;;;;1.10;1.00;;;;;;;2.80;100.00;98201.53;5109576;28;20601;-61
2023/03/12 00:51:20;;;;;;;0.50;0.50;;;;;;;2.80;100.00;98200.72;5109717;28;20224;-61
2023/03/12 00:53:47;;;;;;;0.57;0.47;;;;;;;2.74;100.00;98201.88;5109654;28;20213;-58
2023/03/12 00:56:14;;;;;;;0.63;0.63;;;;;;;2.78;100.00;98203.31;5109774;28;20206;-58
2023/03/12 00:58:42;;;;;;;2.57;0.67;;;;;;;2.68;100.00;98199.69;5109686;28;20213;-61
2023/03/12 01:01:10;;;;;;;1.17;0.47;;;;;;;2.65;100.00;98202.38;5109726;28;20313;-59
2023/03/12 01:03:38;;;;;;;0.40;0.40;;;;;;;2.58;100.00;98199.34;5109511;28;20217;-60
2023/03/12 01:06:05;;;;;;;0.90;0.47;;;;;;;2.57;100.00;98204.50;5109605;28;20494;-61
2023/03/12 01:08:32;;;;;;;0.40;0.40;;;;;;;2.63;100.00;98204.16;5109481;28;20221;-58
2023/03/12 01:11:00;;;;;;;0.40;0.40;;;;;;;2.64;100.00;98193.16;5109527;28;20221;-61
2023/03/12 01:13:27;;;;;;;0.27;0.27;;;;;;;2.55;100.00;98203.75;5109314;28;20729;-61
2023/03/12 01:15:54;;;;;;;0.33;0.33;;;;;;;2.56;100.00;98207.91;5109568;28;20201;-61
2023/03/12 01:18:22;;;;;;;0.40;0.40;;;;;;;2.56;100.00;98210.41;5109274;28;20225;-61
2023/03/12 01:20:49;;;;;;;0.47;0.40;;;;;;;2.55;100.00;98212.13;5109539;28;20592;-59
2023/03/12 01:23:16;;;;;;;0.20;0.20;;;;;;;2.44;100.00;98215.25;5109430;28;20217;-59
2023/03/12 01:25:43;;;;;;;2.43;0.90;;;;;;;2.48;100.00;98216.72;5109475;28;20194;-58
2023/03/12 01:28:10;;;;;;;0.20;0.20;;;;;;;2.43;100.00;98218.66;5109424;28;20233;-59
2023/03/12 01:30:37;;;;;;;1.20;0.87;;;;;;;2.37;100.00;98218.16;5109083;28;20224;-59
2023/03/12 01:33:04;;;;;;;0.50;0.50;;;;;;;2.35;100.00;98215.72;5109315;28;20225;-59
2023/03/12 01:35:38;;;;;;;0.33;0.33;;;;;;;2.31;100.00;98216.78;5109052;28;20563;-58
2023/03/12 01:38:05;;;;;;;0.90;0.60;;;;;;;2.24;100.00;98211.25;5109316;28;20221;-61
2023/03/12 01:40:34;;;;;;;0.70;0.70;;;;;;;2.29;100.00;98211.00;5109032;28;20201;-59
2023/03/12 01:43:26;;;;;;;0.60;0.60;;;;;;;2.22;100.00;98212.22;5109307;28;20221;-59
2023/03/12 01:46:06;;;;;;;0.20;0.20;;;;;;;2.27;100.00;98220.38;5109241;28;20581;-58
2023/03/12 01:48:38;;;;;;;0.30;0.30;;;;;;;2.22;100.00;98214.75;5110987;28;20224;-59
2023/03/12 01:51:09;;;;;;;0.27;0.27;;;;;;;2.19;100.00;98215.72;5113051;28;20225;-61
2023/03/12 01:53:37;;;;;;;0.57;0.43;;;;;;;2.13;100.00;98208.47;5112675;28;20227;-59
2023/03/12 01:56:05;;;;;;;0.50;0.50;;;;;;;2.16;100.00;98210.84;5112531;28;20685;-59
2023/03/12 01:58:34;;;;;;;1.60;1.17;;;;;;;2.16;100.00;98222.63;5112524;28;20229;-59
2023/03/12 02:01:01;;;;;;;0.43;0.43;;;;;;;2.09;100.00;98218.78;5112445;28;20669;-58
2023/03/12 02:03:29;;;;;;;0.20;0.20;;;;;;;2.06;100.00;98224.00;5112493;28;20219;-59
2023/03/12 02:06:02;;;;;;;0.40;0.40;;;;;;;2.03;100.00;98220.72;5112458;28;20201;-61
2023/03/12 02:08:30;;;;;;;1.13;0.37;;;;;;;2.03;100.00;98224.94;5112179;28;20232;-61
2023/03/12 02:10:57;;;;;;;0.60;0.60;;;;;;;1.95;100.00;98227.88;5112736;28;20229;-59
2023/03/12 02:13:24;;;;;;;0.30;0.30;;;;;;;2.02;100.00;98233.41;5112451;28;20590;-60
2023/03/12 02:15:51;;;;;;;0.20;0.20;;;;;;;1.98;100.00;98232.78;5112067;28;20201;-61
2023/03/12 02:18:20;;;;;;;0.30;0.30;;;;;;;1.93;100.00;98232.19;5112498;27;20225;-59
2023/03/12 02:20:52;;;;;;;0.40;0.40;;;;;;;1.95;100.00;98243.00;5112166;28;20200;-60
2023/03/12 02:23:28;;;;;;;0.37;0.37;;;;;;;1.88;100.00;98244.19;5112158;28;20634;-59
2023/03/12 02:25:57;;;;;;;1.43;0.80;;;;;;;1.85;100.00;98254.44;5112370;28;20197;-58
2023/03/12 02:28:28;;;;;;;0.40;0.40;;;;;;;1.90;100.00;98237.38;5111961;27;20312;-60
2023/03/12 02:31:00;;;;;;;0.40;0.40;;;;;;;1.87;100.00;98244.28;5111912;28;20235;-60
2023/03/12 02:33:27;;;;;;;1.63;0.73;;;;;;;1.85;100.00;98246.88;5112192;28;20250;-59
2023/03/12 02:35:55;;;;;;;0.20;0.20;;;;;;;1.84;100.00;98255.34;5111897;28;20201;-59
2023/03/12 02:38:41;;;;;;;0.40;0.40;;;;;;;1.81;100.00;98260.53;5111877;28;20603;-61
2023/03/12 02:41:17;;;;;;;0.20;0.20;;;;;;;1.78;100.00;98260.69;5112106;28;20204;-60
2023/03/12 02:43:47;;;;;;;0.37;0.30;;;;;;;1.78;100.00;98265.72;5111552;28;20217;-60
2023/03/12 02:46:15;;;;;;;0.20;0.20;;;;;;;1.68;100.00;98279.66;5111758;28;20189;-59
2023/03/12 02:48:42;;;;;;;0.40;0.40;;;;;;;1.63;100.00;98281.56;5111652;28;20603;-59
2023/03/12 02:51:09;;;;;;;0.70;0.60;;;;;;;1.66;100.00;98286.47;5111639;28;20239;-61
2023/03/12 02:53:36;;;;;;;0.50;0.50;;;;;;;1.63;100.00;98289.13;5111365;28;20614;-60
2023/03/12 02:56:03;;;;;;;0.27;0.27;;;;;;;1.61;100.00;98289.22;5111535;28;20668;-60
2023/03/12 02:58:31;;;;;;;0.67;0.67;;;;;;;1.57;100.00;98288.56;5110917;28;20221;-61
2023/03/12 03:00:58;;;;;;;0.20;0.20;;;;;;;1.58;100.00;98292.72;5111242;28;20209;-58
2023/03/12 03:03:25;;;;;;;0.10;0.10;;;;;;;1.55;100.00;98292.84;5111232;28;20217;-61
2023/03/12 03:05:52;;;;;;;0.20;0.20;;;;;;;1.58;100.00;98295.22;5111214;28;20203;-60
2023/03/12 03:08:19;;;;;;;0.30;0.30;;;;;;;1.56;100.00;98307.06;5111183;28;20221;-58
2023/03/12 03:10:46;;;;;;;0.30;0.30;;;;;;;1.68;100.00;98304.84;5111012;28;20221;-58
2023/03/12 03:13:13;;;;;;;0.20;0.20;;;;;;;1.54;100.00;98303.81;5111609;28;20225;-59
2023/03/12 03:15:41;;;;;;;0.47;0.47;;;;;;;1.58;100.00;98307.81;5111151;28;20201;-59
2023/03/12 03:18:08;;;;;;;0.20;0.20;;;;;;;1.62;100.00;98318.56;5111059;28;20233;-60
2023/03/12 03:20:34;;;;;;;1.53;0.50;;;;;;;1.57;100.00;98328.88;5110881;28;20189;-59
2023/03/12 03:23:01;;;;;;;0.20;0.20;;;;;;;1.59;100.00;98332.13;5110765;28;20213;-58
2023/03/12 03:25:28;;;;;;;0.43;0.43;;;;;;;1.53;100.00;98332.41;5110885;28;20193;-60
2023/03/12 03:27:55;;;;;;;0.40;0.40;;;;;;;1.45;100.00;98337.00;5110711;28;20542;-60
2023/03/12 03:30:22;;;;;;;0.53;0.50;;;;;;;1.44;100.00;98332.84;5110856;28;20194;-59
2023/03/12 03:32:51;;;;;;;0.20;0.20;;;;;;;1.40;100.00;98331.38;5110722;28;20326;-58
2023/03/12 03:35:18;;;;;;;2.20;0.87;;;;;;;1.38;100.00;98333.16;5110921;28;20199;-60
2023/03/12 03:37:45;;;;;;;0.17;0.17;;;;;;;1.39;100.00;98333.94;5110682;28;20701;-60
2023/03/12 03:40:13;;;;;;;0.57;0.50;;;;;;;1.39;100.00;98334.75;5110637;28;20197;-59
2023/03/12 03:42:40;;;;;;;1.27;0.50;;;;;;;1.39;100.00;98337.28;5110322;28;20224;-60
2023/03/12 03:45:09;;;;;;;0.40;0.40;;;;;;;1.33;100.00;98340.09;5110576;28;20568;-61
2023/03/12 03:47:36;;;;;;;0.10;0.10;;;;;;;1.47;100.00;98347.81;5110253;28;20733;-60
2023/03/12 03:50:06;;;;;;;0.63;0.63;;;;;;;1.41;100.00;98365.75;5110334;28;20197;-60
2023/03/12 03:52:33;;;;;;;0.67;0.30;;;;;;;1.43;100.00;98365.69;5110128;28;20232;-59
2023/03/12 03:55:00;;;;;;;0.50;0.50;;;;;;;1.41;100.00;98362.41;5110260;28;20197;-60
2023/03/12 03:57:28;;;;;;;0.27;0.27;;;;;;;1.39;100.00;98354.91;5110600;28;20214;-59
2023/03/12 03:59:54;;;;;;;0.10;0.10;;;;;;;1.35;100.00;98361.00;5110172;28;20201;-59
2023/03/12 04:02:22;;;;;;;0.23;0.23;;;;;;;1.36;100.00;98370.16;5110074;28;20713;-59
2023/03/12 04:04:49;;;;;;;0.50;0.50;;;;;;;1.34;100.00;98374.47;5110440;28;20201;-58
2023/03/12 04:07:17;;;;;;;0.13;0.13;;;;;;;1.40;100.00;98381.75;5110257;28;20278;-58
2023/03/12 04:09:44;;;;;;;0.87;0.50;;;;;;;1.20;100.00;98390.22;5110064;28;20197;-59
2023/03/12 04:12:11;;;;;;;0.10;0.10;;;;;;;1.25;100.00;98397.53;5109354;28;20232;-59
2023/03/12 04:14:40;;;;;;;0.27;0.27;;;;;;;1.19;100.00;98397.81;5110070;28;20204;-59
2023/03/12 04:17:08;;;;;;;0.20;0.20;;;;;;;1.17;100.00;98394.56;5109979;28;20250;-58
2023/03/12 04:19:35;;;;;;;0.67;0.67;;;;;;;1.08;100.00;98400.84;5109910;28;20201;-59
2023/03/12 04:22:02;;;;;;;0.30;0.30;;;;;;;1.07;100.00;98405.03;5110077;28;20197;-59
2023/03/12 04:24:30;;;;;;;0.20;0.20;;;;;;;1.01;100.00;98415.38;5109809;28;20293;-59
2023/03/12 04:26:58;;;;;;;0.50;0.43;;;;;;;1.09;100.00;98417.56;5110208;28;20568;-58
2023/03/12 04:29:25;;;;;;;0.40;0.40;;;;;;;1.05;100.00;98419.41;5109914;28;20203;-60
2023/03/12 04:31:52;;;;;;;0.20;0.20;;;;;;;0.99;100.00;98419.69;5109645;28;20236;-60
2023/03/12 04:34:19;;;;;;;0.77;0.77;;;;;;;1.03;100.00;98428.72;5110022;28;20211;-58
2023/03/12 04:36:46;;;;;;;0.30;0.30;;;;;;;1.09;100.00;98427.63;5110044;28;20204;-59
2023/03/12 04:39:14;;;;;;;0.40;0.40;;;;;;;0.99;100.00;98427.22;5109828;28;20201;-58
2023/03/12 04:41:42;;;;;;;0.27;0.20;;;;;;;1.07;100.00;98431.91;5109851;28;20669;-60
2023/03/12 04:44:09;;;;;;;0.20;0.20;;;;;;;1.10;100.00;98441.84;5109385;28;20605;-58
2023/03/12 04:46:36;;;;;;;0.27;0.27;;;;;;;1.05;100.00;98447.09;5109571;28;20688;-59
2023/03/12 04:49:04;;;;;;;0.30;0.30;;;;;;;1.11;100.00;98451.84;5109468;28;20257;-59
2023/03/12 04:51:32;;;;;;;0.70;0.70;;;;;;;1.03;100.00;98458.91;5109673;28;20225;-59
2023/03/12 04:53:59;;;;;;;0.30;0.20;;;;;;;1.06;100.00;98461.31;5109531;28;20221;-60
2023/03/12 04:56:26;;;;;;;0.20;0.20;;;;;;;1.07;100.00;98480.53;5109680;28;20197;-60
2023/03/12 04:58:54;;;;;;;0.33;0.33;;;;;;;1.22;100.00;98478.25;5109392;28;20240;-59
2023/03/12 05:01:25;;;;;;;0.40;0.40;;;;;;;1.20;100.00;98475.00;5109395;28;20201;-60
2023/03/12 05:03:52;;;;;;;0.27;0.27;;;;;;;1.33;100.00;98493.72;5109655;28;20477;-61
2023/03/12 05:06:20;;;;;;;0.40;0.40;;;;;;;1.43;99.51;98501.69;5109867;28;20201;-61
2023/03/12 05:08:47;;;;;;;0.20;0.20;;;;;;;1.50;98.81;98503.03;5109647;28;20250;-59
2023/03/12 05:11:14;;;;;;;0.40;0.33;;;;;;;1.64;98.68;98497.38;5109377;28;20615;-59
2023/03/12 05:13:42;;;;;;;0.27;0.27;;;;;;;1.71;96.79;98511.31;5109367;28;20220;-58
2023/03/12 05:16:11;;;;;;;0.53;0.53;;;;;;;1.90;96.53;98504.56;5109462;28;20741;-61
2023/03/12 05:18:38;;;;;;;0.27;0.27;;;;;;;1.95;95.30;98527.88;5109504;28;20647;-59
2023/03/12 05:21:07;;;;;;;0.27;0.27;;;;;;;2.14;95.04;98519.44;5109424;28;20202;-59
2023/03/12 05:23:34;;;;;;;0.30;0.30;;;;;;;2.31;94.60;98529.53;5112990;28;20236;-58
2023/03/12 05:26:02;;;;;;;0.43;0.43;;;;;;;2.54;93.20;98538.53;5113086;27;20201;-60
2023/03/12 05:28:29;;;;;;;0.70;0.60;;;;;;;2.64;91.36;98543.94;5113214;28;20217;-58
2023/03/12 05:30:56;;;;;;;0.20;0.20;;;;;;;2.59;90.51;98538.28;5113205;28;20201;-61
2023/03/12 05:33:25;;;;;;;2.73;0.60;;;;;;;2.64;90.03;98543.94;5113087;28;20240;-59
2023/03/12 05:35:52;;;;;;;0.93;0.60;;;;;;;2.80;88.80;98541.50;5112992;28;20193;-59
2023/03/12 05:38:19;;;;;;;0.50;0.40;;;;;;;2.98;89.34;98548.16;5112989;27;20221;-62
2023/03/12 05:40:52;;;;;;;0.87;0.60;;;;;;;2.94;89.11;98557.59;5113195;28;20197;-58
2023/03/12 05:43:19;;;;;;;0.40;0.40;;;;;;;2.83;89.50;98559.84;5113074;28;20221;-61
2023/03/12 05:45:46;;;;;;;0.57;0.40;;;;;;;2.92;89.00;98566.94;5112941;28;20197;-59
2023/03/12 05:48:13;;;;;;;0.30;0.23;;;;;;;3.10;88.49;98571.97;5113197;28;20221;-62
2023/03/12 05:50:41;;;;;;;0.40;0.40;;;;;;;3.16;87.61;98586.81;5112718;28;20195;-61
2023/03/12 05:53:09;;;;;;;1.53;0.53;;;;;;;3.26;88.01;98590.53;5112533;28;20729;-59
2023/03/12 05:55:36;;;;;;;0.87;0.70;;;;;;;3.30;87.81;98583.63;5112558;28;20201;-61
2023/03/12 05:58:04;;;;;;;1.53;1.20;;;;;;;3.18;85.90;98590.09;5112509;28;20213;-62
2023/03/12 06:00:31;;;;;;;0.27;0.27;;;;;;;3.25;87.22;98586.34;5112472;28;20203;-59
2023/03/12 06:02:58;;;;;;;1.37;0.50;;;;;;;3.39;87.19;98608.41;5112753;28;20607;-58
2023/03/12 06:05:25;;;;;;;0.50;0.50;;;;;;;3.38;86.32;98607.59;5112387;28;20193;-62
2023/03/12 06:07:53;;;;;;;0.63;0.63;;;;;;;3.42;86.71;98612.50;5112493;28;20330;-61
2023/03/12 06:10:20;;;;;;;0.50;0.50;;;;;;;3.77;85.36;98619.09;5112098;28;20200;-62
2023/03/12 06:12:47;;;;;;;0.67;0.67;;;;;;;4.14;85.11;98626.47;5112267;28;20229;-62
2023/03/12 06:15:13;;;;;;;0.53;0.33;;;;;;;4.11;84.58;98624.91;5112535;27;20193;-59
2023/03/12 06:17:40;;;;;;;0.50;0.50;;;;;;;4.06;83.99;98635.25;5112191;28;20227;-59
2023/03/12 06:20:10;;;;;;;2.03;1.00;;;;;;;3.94;84.27;98640.97;5112178;28;20189;-62
2023/03/12 06:22:37;;;;;;;0.40;0.40;;;;;;;4.49;84.32;98642.28;5111991;28;20213;-59
2023/03/12 06:25:06;;;;;;;0.47;0.47;;;;;;;4.37;84.52;98653.88;5112034;28;20199;-59
2023/03/12 06:27:33;;;;;;;1.47;0.80;;;;;;;4.46;83.33;98653.38;5112414;28;20213;-61
2023/03/12 06:30:00;;;;;;;1.83;0.87;;;;;;;4.46;81.85;98647.50;5111763;28;20193;-62
2023/03/12 06:32:27;;;;;;;1.10;0.93;;;;;;;4.31;82.71;98649.97;5111832;28;20229;-62
2023/03/12 06:34:54;;;;;;;0.97;0.53;;;;;;;4.18;83.26;98664.16;5111248;28;20204;-59
2023/03/12 06:37:21;;;;;;;0.37;0.37;;;;;;;4.34;83.82;98663.34;5111829;28;20214;-62
2023/03/12 06:39:48;;;;;;;0.57;0.57;;;;;;;4.45;82.80;98671.16;5111901;27;20198;-62
2023/03/12 06:42:17;;;;;;;1.53;0.77;;;;;;;4.56;83.71;98668.88;5112277;28;20217;-62
2023/03/12 06:44:44;;;;;;;1.17;0.60;;;;;;;5.04;82.68;98679.75;5111788;28;20190;-59
2023/03/12 06:47:11;;;;;;;0.87;0.67;;;;;;;5.03;80.50;98672.22;5111777;28;20213;-59
2023/03/12 06:49:38;;;;;;;1.43;0.90;;;;;;;4.67;80.38;98681.75;5111623;28;20765;-59
2023/03/12 06:52:05;;;;;;;0.33;0.33;;;;;;;4.71;82.35;98682.41;5111452;28;20237;-60
2023/03/12 06:54:32;;;;;;;0.50;0.50;;;;;;;4.82;80.07;98691.97;5111535;28;20614;-61
2023/03/12 06:57:00;;;;;;;0.90;0.90;;;;;;;4.84;79.84;98692.69;5111276;28;20201;-61
2023/03/12 06:59:28;;;;;;;0.40;0.33;;;;;;;5.30;79.95;98690.13;5111551;28;20628;-61
2023/03/12 07:01:55;;;;;;;1.23;0.63;;;;;;;5.62;80.22;98686.56;5111369;28;20261;-62
2023/03/12 07:04:22;;;;;;;0.70;0.70;;;;;;;5.31;76.75;98691.75;5111565;28;20201;-59
2023/03/12 07:06:50;;;;;;;0.50;0.50;;;;;;;5.39;76.65;98690.41;5111023;28;20208;-59
2023/03/12 07:09:17;;;;;;;0.87;0.50;;;;;;;5.62;77.09;98696.69;5111599;28;20238;-59
2023/03/12 07:11:44;;;;;;;0.63;0.43;;;;;;;5.74;76.29;98714.63;5110960;28;20230;-59
2023/03/12 07:14:11;;;;;;;1.10;1.00;;;;;;;5.92;76.10;98707.66;5111257;28;20608;-59
2023/03/12 07:16:39;;;;;;;0.60;0.60;;;;;;;5.94;75.66;98696.56;5110973;28;20201;-59
2023/03/12 07:19:06;;;;;;;1.40;0.67;;;;;;;5.91;76.44;98704.31;5111231;28;20221;-59
2023/03/12 07:21:33;;;;;;;0.90;0.90;;;;;;;5.57;74.86;98711.34;5111006;28;20205;-61
2023/03/12 07:24:05;;;;;;;0.73;0.73;;;;;;;4.99;77.39;98717.19;5111199;28;20221;-62
2023/03/12 07:26:32;;;;;;;1.33;0.97;;;;;;;4.84;77.95;98728.16;5111157;28;20205;-62
2023/03/12 07:28:59;;;;;;;1.00;0.90;;;;;;;4.83;78.72;98731.56;5110845;28;20221;-59
2023/03/12 07:31:26;;;;;;;0.70;0.70;;;;;;;4.62;79.38;98729.31;5111165;28;20197;-59
2023/03/12 07:33:54;;;;;;;0.83;0.77;;;;;;;4.48;80.06;98729.22;5110711;28;20233;-61
2023/03/12 07:36:21;;;;;;;0.73;0.67;;;;;;;4.48;81.04;98725.00;5110786;28;20198;-59
2023/03/12 07:38:48;;;;;;;1.37;1.27;;;;;;;4.42;82.04;98739.66;5110666;28;20625;-59
2023/03/12 07:41:15;;;;;;;0.77;0.73;;;;;;;4.47;79.89;98745.31;5110902;28;20201;-59
2023/03/12 07:43:42;;;;;;;1.23;1.13;;;;;;;4.44;81.06;98745.47;5110611;27;20484;-59
2023/03/12 07:46:09;;;;;;;0.97;0.70;;;;;;;4.57;81.91;98756.59;5110903;28;20201;-61
2023/03/12 07:48:36;;;;;;;0.50;0.50;;;;;;;4.63;80.56;98756.28;5110831;28;20224;-61
2023/03/12 07:51:04;;;;;;;0.40;0.40;;;;;;;4.73;81.39;98757.41;5110361;28;20201;-59
2023/03/12 07:53:31;;;;;;;0.53;0.53;;;;;;;4.92;80.79;98761.50;5110514;28;20225;-59
2023/03/12 07:55:58;;;;;;;0.87;0.77;;;;;;;4.92;82.56;98777.50;5110341;28;20590;-59
2023/03/12 07:58:25;;;;;;;1.17;1.07;;;;;;;4.99;83.24;98772.91;5110410;28;20232;-59
2023/03/12 08:00:54;;;;;;;0.97;0.90;;;;;;;5.16;80.97;98774.53;5110406;28;20203;-61
2023/03/12 08:03:21;;;;;;;0.50;0.50;;;;;;;5.28;79.46;98783.19;5110321;28;20517;-59
2023/03/12 08:05:56;;;;;;;0.50;0.50;;;;;;;5.84;82.35;98774.06;5110344;28;20201;-61
2023/03/12 08:08:25;;;;;;;0.73;0.53;;;;;;;5.97;80.24;98782.63;5110291;28;20220;-59
2023/03/12 08:10:52;;;;;;;0.90;0.90;;;;;;;5.97;77.36;98782.63;5110188;28;20205;-61
2023/03/12 08:13:19;;;;;;;1.30;1.20;;;;;;;5.31;78.10;98791.41;5110384;28;20229;-59
2023/03/12 08:15:45;;;;;;;1.30;0.83;;;;;;;5.27;79.13;98791.69;5110159;28;20193;-59
2023/03/12 08:18:12;;;;;;;1.40;0.80;;;;;;;5.26;80.08;98803.53;5110204;28;20225;-59
2023/03/12 08:20:39;;;;;;;0.27;0.27;;;;;;;5.22;80.02;98794.47;5110378;28;20209;-59
2023/03/12 08:23:06;;;;;;;2.27;1.70;;;;;;;5.74;81.06;98790.72;5108675;28;20611;-61
2023/03/12 08:25:35;;;;;;;0.57;0.57;;;;;;;5.79;79.79;98809.03;5109828;28;20201;-59
2023/03/12 08:28:02;;;;;;;0.93;0.67;;;;;;;5.61;79.75;98806.66;5109897;28;20347;-61
2023/03/12 08:30:29;;;;;;;0.77;0.77;;;;;;;5.49;79.12;98812.38;5109650;28;20204;-61
2023/03/12 08:32:56;;;;;;;1.13;0.80;;;;;;;5.76;79.97;98804.13;5109952;28;20248;-61
2023/03/12 08:35:23;;;;;;;2.00;1.03;;;;;;;5.52;81.00;98814.75;5109983;28;20196;-59
2023/03/12 08:37:50;;;;;;;1.43;0.80;;;;;;;5.57;81.03;98800.09;5110028;28;20217;-59
2023/03/12 08:40:17;;;;;;;1.37;1.23;;;;;;;5.46;80.12;98817.63;5109846;28;20588;-59
2023/03/12 08:42:45;;;;;;;0.63;0.50;;;;;;;5.60;81.00;98822.75;5109863;28;20224;-59
2023/03/12 08:45:14;;;;;;;2.13;1.07;;;;;;;5.56;80.86;98817.97;5109634;28;20197;-61
2023/03/12 08:47:42;;;;;;;1.00;0.90;;;;;;;5.66;81.80;98829.19;5110344;28;20217;-59
2023/03/12 08:50:11;;;;;;;0.70;0.70;;;;;;;5.55;81.27;98822.19;5109215;28;20630;-59
2023/03/12 08:52:38;;;;;;;1.30;1.10;;;;;;;5.56;79.96;98826.38;5109039;28;20274;-59
2023/03/12 08:55:06;;;;;;;1.70;1.17;;;;;;;5.38;79.73;98822.31;5109495;28;20257;-62
2023/03/12 08:57:33;;;;;;;2.13;1.50;;;;;;;5.67;78.22;98831.66;5111521;28;20342;-61
2023/03/12 09:00:03;;;;;;;0.50;0.50;;;;;;;5.98;79.14;98824.88;5113840;28;20200;-59
2023/03/12 09:02:31;;;;;;;1.37;0.73;;;;;;;6.32;75.96;98831.34;5115710;28;20213;-62
2023/03/12 09:04:57;;;;;;;1.10;1.00;;;;;;;6.39;76.52;98821.63;5114127;27;20287;-62
2023/03/12 09:07:25;;;;;;;1.40;1.07;;;;;;;6.34;78.23;98831.22;5114215;28;20210;-59
2023/03/12 09:09:54;;;;;;;1.43;1.07;;;;;;;6.12;78.41;98832.50;5114003;28;20197;-59
2023/03/12 09:12:21;;;;;;;0.70;0.60;;;;;;;5.85;79.31;98832.34;5113832;28;20570;-62
2023/03/12 09:14:47;;;;;;;0.67;0.63;;;;;;;5.80;79.54;98841.13;5113542;27;20190;-61
2023/03/12 09:17:16;;;;;;;3.43;1.00;;;;;;;5.95;80.33;98844.53;5113433;28;20223;-61
2023/03/12 09:19:42;;;;;;;0.60;0.50;;;;;;;6.13;78.63;98839.19;5113533;28;20578;-62
2023/03/12 09:22:09;;;;;;;0.67;0.67;;;;;;;6.18;79.01;98844.03;5113633;28;20217;-62
2023/03/12 09:24:36;;;;;;;5.50;0.80;;;;;;;6.06;81.52;98843.00;5113463;28;20197;-62
2023/03/12 09:27:04;;;;;;;0.93;0.83;;;;;;;6.26;79.35;98853.75;5113557;28;20653;-62
2023/03/12 09:29:31;;;;;;;0.83;0.83;;;;;;;6.49;76.63;98862.56;5113223;28;20197;-62
2023/03/12 09:31:59;;;;;;;2.53;1.17;;;;;;;6.53;73.43;98859.72;5112876;28;20196;-61
2023/03/12 09:34:27;;;;;;;1.17;0.90;;;;;;;6.05;75.41;98866.75;5113193;28;20232;-61
2023/03/12 09:36:54;;;;;;;0.90;0.90;;;;;;;6.35;76.44;98863.34;5113160;28;20197;-61
2023/03/12 09:39:21;;;;;;;0.90;0.90;;;;;;;6.68;77.43;98872.41;5113282;28;20201;-61
2023/03/12 09:41:49;;;;;;;2.67;1.77;;;;;;;6.65;76.56;98885.31;5113111;28;20236;-61
2023/03/12 09:44:22;;;;;;;1.53;1.10;;;;;;;7.06;75.41;98884.53;5113080;28;20200;-61
2023/03/12 09:46:52;;;;;;;2.70;1.23;;;;;;;7.42;73.72;98892.44;5113102;28;20739;-59
2023/03/12 09:49:28;;;;;;;0.80;0.80;;;;;;;7.41;72.89;98880.63;5112944;28;20205;-61
2023/03/12 09:51:59;;;;;;;1.87;1.17;;;;;;;8.78;72.74;98885.28;5112648;28;20201;-61
2023/03/12 09:54:32;;;;;;;0.80;0.77;;;;;;;9.71;66.13;98884.78;5112701;28;20232;-59
2023/03/12 09:57:04;;;;;;;1.73;1.30;;;;;;;10.30;64.53;98891.63;5111813;28;20197;-59
2023/03/12 09:59:31;;;;;;;2.97;1.90;;;;;;;10.61;61.55;98880.69;5110776;28;20193;-59
2023/03/12 10:02:02;;;;;;;1.30;1.20;;;;;;;10.78;60.64;98886.28;5111489;28;20223;-62
2023/03/12 10:04:38;;;;;;;2.67;1.20;;;;;;;10.77;61.81;98880.38;5112676;28;20189;-59
2023/03/12 10:07:12;;;;;;;1.90;0.97;;;;;;;11.53;58.69;98876.13;5112448;28;20201;-61
2023/03/12 10:10:03;;;;;;;1.40;1.03;;;;;;;11.31;57.78;98874.47;5111260;28;20291;-62
2023/03/12 10:12:42;;;;;;;1.27;1.13;;;;;;;11.38;59.55;98881.66;5103717;28;20221;-59
2023/03/12 10:15:25;;;;;;;2.20;1.40;;;;;;;11.42;59.23;98880.47;5112434;28;20462;-60
2023/03/12 10:18:01;;;;;;;2.50;1.20;;;;;;;11.29;56.92;98880.66;5112250;28;20225;-62
2023/03/12 10:20:50;;;;;;;1.40;1.17;;;;;;;11.67;56.36;98885.28;5112621;28;20572;-62
2023/03/12 10:23:26;;;;;;;1.90;1.37;;;;;;;12.16;57.68;98880.53;5112511;28;20285;-62
2023/03/12 10:25:59;;;;;;;1.70;1.30;;;;;;;12.15;55.77;98889.16;5112449;28;20192;-62
2023/03/12 10:28:34;;;;;;;2.00;1.60;;;;;;;12.29;53.09;98890.59;5112172;28;20224;-62
2023/03/12 10:31:04;;;;;;;1.63;1.20;;;;;;;12.45;53.94;98876.38;5112452;28;20197;-59
2023/03/12 10:33:42;;;;;;;3.60;1.47;;;;;;;11.45;55.54;98887.91;5112161;28;20233;-59
2023/03/12 10:36:18;;;;;;;1.83;1.10;;;;;;;11.97;54.86;98887.16;5112521;28;20201;-62
2023/03/12 10:38:48;;;;;;;1.70;1.40;;;;;;;12.33;51.12;98890.19;5112172;28;20224;-62
2023/03/12 10:41:17;;;;;;;0.70;0.70;;;;;;;12.59;53.03;98882.09;5112105;28;20204;-59
2023/03/12 10:43:44;;;;;;;1.03;0.90;;;;;;;12.19;48.68;98882.84;5111527;28;20709;-59
2023/03/12 10:46:35;;;;;;;2.00;1.27;;;;;;;11.73;49.49;98878.84;5111715;28;20205;-62
2023/03/12 10:49:23;;;;;;;0.67;0.67;;;;;;;11.43;48.79;98871.84;5111554;28;20228;-62
2023/03/12 10:51:55;;;;;;;1.27;0.93;;;;;;;11.95;51.28;98871.06;5111432;28;20201;-62
2023/03/12 10:54:28;;;;;;;1.10;1.00;;;;;;;12.27;49.35;98869.38;5112364;28;20282;-59
2023/03/12 10:56:55;;;;;;;1.67;1.20;;;;;;;12.33;50.36;98867.13;5111780;28;20193;-59
2023/03/12 10:59:25;;;;;;;1.97;1.37;;;;;;;11.99;49.20;98867.34;5110478;28;20661;-59
2023/03/12 11:01:53;;;;;;;0.93;0.80;;;;;;;12.02;49.89;98871.41;5111088;28;20201;-59
2023/03/12 11:04:24;;;;;;;3.30;1.17;;;;;;;12.17;50.05;98866.78;5111562;28;20575;-59
2023/03/12 11:07:19;;;;;;;1.67;1.27;;;;;;;12.51;53.16;98864.78;5111673;28;20201;-59
2023/03/12 11:10:14;;;;;;;1.20;1.10;;;;;;;12.75;49.82;98877.28;5108036;28;20197;-62
2023/03/12 11:12:50;;;;;;;1.07;1.00;;;;;;;12.26;49.25;98876.25;5110692;28;20225;-62
2023/03/12 11:15:21;;;;;;;1.30;1.03;;;;;;;12.94;49.76;98871.41;5110663;28;20213;-62
2023/03/12 11:17:48;;;;;;;1.53;1.07;;;;;;;12.64;49.65;98874.81;5110331;28;20217;-59
2023/03/12 11:20:29;;;;;;;1.70;0.90;;;;;;;12.93;48.13;98879.25;5110281;28;20691;-60
2023/03/12 11:22:56;;;;;;;1.00;0.93;;;;;;;12.96;47.26;98876.41;5110857;28;20214;-59
2023/03/12 11:25:26;;;;;;;1.50;1.40;;;;;;;12.73;47.91;98873.22;5110420;28;20209;-60
2023/03/12 11:27:55;;;;;;;2.23;1.57;;;;;;;12.55;48.07;98870.47;5110281;28;20324;-60
2023/03/12 11:30:26;;;;;;;1.33;1.13;;;;;;;12.27;48.92;98872.75;5109748;28;20193;-65
2023/03/12 11:32:54;;;;;;;1.60;1.20;;;;;;;12.48;50.74;98864.22;5110919;28;20217;-65
2023/03/12 11:35:31;;;;;;;0.93;0.90;;;;;;;12.54;49.32;98863.72;5110692;28;20232;-60
2023/03/12 11:38:10;;;;;;;2.23;1.10;;;;;;;12.78;50.59;98861.66;5110346;28;20216;-59
2023/03/12 11:40:57;;;;;;;2.17;1.43;;;;;;;12.57;49.83;98868.59;5110698;28;20208;-59
2023/03/12 11:43:38;;;;;;;1.50;1.23;;;;;;;13.16;49.25;98851.59;5090151;28;20215;-65
2023/03/12 11:46:17;;;;;;;3.57;1.70;;;;;;;12.73;49.62;98858.66;5089289;28;20198;-65